Time;durP1;ratioP1;P1;durP2;ratioP2;P2;SDS_P1;SDS_P2;PMS_P1;PMS_P2;Temp;Humidity;BMP_temperature;BMP_pressure;BME280_temperature;BME280_humidity;BME280_pressure;Samples;Min_cycle;Max_cycle;Signal;HPM_P1;HPM_P2
2022/11/25 00:00:49;;;;;;;13.05;3.50;;;;;;;11.06;66.83;100857.88;5134868;27;20106;-62
2022/11/25 00:03:17;;;;;;;10.52;2.70;;;;;;;11.00;66.77;100846.16;5145826;27;20075;-62
2022/11/25 00:05:46;;;;;;;10.05;2.58;;;;;;;11.05;66.80;100857.03;5136797;27;20039;-62
2022/11/25 00:08:13;;;;;;;10.40;2.30;;;;;;;11.07;66.81;100857.66;5142408;27;20069;-62
2022/11/25 00:10:41;;;;;;;8.10;2.35;;;;;;;11.05;66.89;100854.34;5138289;27;20488;-62
2022/11/25 00:13:09;;;;;;;10.82;2.42;;;;;;;11.05;67.02;100859.75;5145182;27;20049;-61
2022/11/25 00:15:37;;;;;;;9.63;2.42;;;;;;;11.06;66.78;100850.63;5128167;27;20458;-62
2022/11/25 00:18:04;;;;;;;9.55;3.13;;;;;;;11.07;67.02;100859.50;5138904;27;20040;-62
2022/11/25 00:20:32;;;;;;;10.27;3.05;;;;;;;11.06;66.99;100856.00;5142908;27;20118;-62
2022/11/25 00:23:01;;;;;;;10.02;2.63;;;;;;;11.07;67.14;100848.75;5128331;27;20061;-62
2022/11/25 00:25:29;;;;;;;9.50;2.90;;;;;;;11.08;66.98;100853.09;5137005;27;20035;-62
2022/11/25 00:27:56;;;;;;;10.82;2.75;;;;;;;11.07;67.10;100843.38;5144067;27;20078;-62
2022/11/25 00:30:24;;;;;;;9.80;3.05;;;;;;;11.06;67.12;100837.19;5145986;27;20110;-62
2022/11/25 00:32:53;;;;;;;10.15;2.95;;;;;;;11.06;67.11;100837.19;5141432;27;20047;-62
2022/11/25 00:35:21;;;;;;;9.55;2.65;;;;;;;11.06;67.02;100830.97;5135995;27;20051;-62
2022/11/25 00:37:48;;;;;;;10.27;2.72;;;;;;;11.07;67.21;100829.94;5143715;27;20057;-62
2022/11/25 00:40:18;;;;;;;10.93;3.17;;;;;;;11.09;67.41;100830.53;5145110;27;20058;-62
2022/11/25 00:45:31;;;;;;;12.00;2.53;;;;;;;11.09;67.08;100830.53;5145707;27;20472;-62
2022/11/25 00:47:58;;;;;;;6.65;2.35;;;;;;;11.07;67.20;100825.38;5135893;27;20044;-62
2022/11/25 00:50:26;;;;;;;8.80;3.25;;;;;;;11.05;67.29;100827.47;5134765;27;20078;-61
2022/11/25 00:52:54;;;;;;;11.20;2.25;;;;;;;11.05;67.33;100826.66;5142566;27;20054;-61
2022/11/25 00:55:23;;;;;;;9.63;2.50;;;;;;;11.05;67.43;100834.72;5135733;27;20111;-61
2022/11/25 00:57:50;;;;;;;11.00;2.90;;;;;;;11.04;67.44;100839.28;5144663;27;20111;-61
2022/11/25 01:00:18;;;;;;;12.05;2.42;;;;;;;11.03;67.49;100842.19;5145007;27;20074;-61
2022/11/25 01:02:48;;;;;;;8.23;2.20;;;;;;;11.02;67.41;100841.38;5139918;27;20084;-61
2022/11/25 01:05:15;;;;;;;11.35;2.15;;;;;;;11.02;67.35;100846.75;5143229;27;20058;-62
2022/11/25 01:07:43;;;;;;;6.88;2.20;;;;;;;11.02;67.43;100845.91;5142679;27;20126;-61
2022/11/25 01:10:11;;;;;;;11.85;2.80;;;;;;;11.00;67.55;100846.16;5141322;27;20618;-62
2022/11/25 01:12:40;;;;;;;11.00;3.20;;;;;;;11.02;67.41;100845.91;5136224;27;20046;-62
2022/11/25 01:15:09;;;;;;;9.65;2.42;;;;;;;11.04;67.46;100838.44;5141348;27;20043;-62
2022/11/25 01:17:37;;;;;;;12.98;3.47;;;;;;;11.04;67.42;100846.53;5144200;27;20102;-62
2022/11/25 01:20:06;;;;;;;9.65;2.70;;;;;;;11.05;67.53;100835.53;5138460;27;20043;-62
2022/11/25 01:22:34;;;;;;;11.63;2.20;;;;;;;11.04;67.38;100841.97;5140731;27;20043;-61
2022/11/25 01:25:01;;;;;;;9.45;2.65;;;;;;;11.03;67.48;100851.06;5144261;27;20051;-62
2022/11/25 01:27:29;;;;;;;12.88;2.60;;;;;;;11.05;67.50;100851.66;5132692;27;20040;-62
2022/11/25 01:29:58;;;;;;;8.27;2.35;;;;;;;11.05;67.51;100850.84;5144550;27;20057;-62
2022/11/25 01:32:26;;;;;;;12.48;2.65;;;;;;;11.03;67.53;100856.44;5142550;27;20041;-62
2022/11/25 01:34:53;;;;;;;8.98;2.28;;;;;;;11.02;67.74;100862.88;5144911;27;20054;-62
2022/11/25 01:37:21;;;;;;;13.50;2.80;;;;;;;11.02;67.61;100865.56;5141226;27;20047;-61
2022/11/25 01:39:49;;;;;;;7.95;2.95;;;;;;;11.03;67.68;100864.53;5142229;27;20054;-61
2022/11/25 01:42:17;;;;;;;13.35;3.25;;;;;;;11.02;67.77;100862.88;5134577;27;20127;-61
2022/11/25 01:45:24;;;;;;;9.82;2.65;;;;;;;11.01;67.57;100861.22;5144060;27;20063;-62
2022/11/25 01:48:01;;;;;;;10.15;2.38;;;;;;;11.02;67.62;100875.50;5135466;27;20043;-62
2022/11/25 01:50:31;;;;;;;12.25;2.45;;;;;;;11.02;67.75;100878.19;5124136;27;20970;-62
2022/11/25 01:53:01;;;;;;;9.05;2.58;;;;;;;11.01;67.63;100873.84;5141568;27;20134;-62
2022/11/25 01:55:33;;;;;;;8.25;2.85;;;;;;;11.00;67.78;100885.66;5144602;27;20047;-62
2022/11/25 01:58:05;;;;;;;7.18;2.78;;;;;;;11.00;67.82;100891.84;5144650;27;20154;-62
2022/11/25 02:00:33;;;;;;;12.13;2.83;;;;;;;11.00;67.82;100905.31;5142359;27;20067;-61
2022/11/25 02:03:03;;;;;;;12.63;2.50;;;;;;;11.00;67.87;100894.56;5142441;27;20704;-62
2022/11/25 02:05:39;;;;;;;9.23;2.05;;;;;;;11.03;67.81;100901.34;5139843;27;20071;-61
2022/11/25 02:08:07;;;;;;;10.63;2.33;;;;;;;11.02;67.83;100911.28;5142404;27;20050;-62
2022/11/25 02:10:35;;;;;;;10.32;1.98;;;;;;;11.01;67.74;100909.63;5143369;27;20297;-62
2022/11/25 02:13:03;;;;;;;9.02;2.17;;;;;;;11.00;67.91;100908.00;5138549;27;20070;-62
2022/11/25 02:15:34;;;;;;;10.85;2.60;;;;;;;11.01;67.89;100915.03;5144443;27;20112;-62
2022/11/25 02:18:03;;;;;;;10.38;2.55;;;;;;;11.00;67.94;100913.38;5137959;27;20142;-62
2022/11/25 02:20:31;;;;;;;8.25;3.10;;;;;;;11.01;68.04;100917.72;5143163;27;20069;-62
2022/11/25 02:23:04;;;;;;;9.25;2.40;;;;;;;11.02;68.01;100924.72;5141559;27;20082;-62
2022/11/25 02:25:35;;;;;;;10.90;2.47;;;;;;;11.03;68.12;100933.63;5143835;27;20051;-62
2022/11/25 02:28:07;;;;;;;9.02;2.30;;;;;;;10.99;68.28;100922.50;5141529;28;20066;-62
2022/11/25 02:30:35;;;;;;;5.90;2.10;;;;;;;11.03;68.25;100937.13;5143017;28;20098;-62
2022/11/25 02:33:03;;;;;;;14.82;3.25;;;;;;;11.03;67.81;100942.50;5141325;28;20075;-62
2022/11/25 02:35:34;;;;;;;11.50;3.15;;;;;;;11.04;68.07;100935.25;5140491;28;20162;-62
2022/11/25 02:38:07;;;;;;;10.30;2.42;;;;;;;11.05;68.15;100944.97;5133632;28;20067;-62
2022/11/25 02:40:42;;;;;;;12.30;3.80;;;;;;;11.05;68.26;100947.66;5136253;27;20051;-62
2022/11/25 02:43:09;;;;;;;8.65;2.00;;;;;;;11.04;68.22;100957.59;5140499;27;20047;-62
2022/11/25 02:45:48;;;;;;;13.15;3.95;;;;;;;11.05;68.32;100961.13;5147253;27;20071;-62
2022/11/25 02:48:16;;;;;;;11.05;3.05;;;;;;;11.04;68.28;100962.97;5146294;27;20050;-62
2022/11/25 02:50:44;;;;;;;9.50;2.20;;;;;;;11.04;68.35;100962.16;5147941;27;20049;-62
2022/11/25 02:53:12;;;;;;;7.13;2.20;;;;;;;11.03;68.43;100955.97;5144242;27;20052;-63
2022/11/25 02:55:41;;;;;;;7.03;2.70;;;;;;;11.03;68.57;100929.06;5147708;27;20043;-62
2022/11/25 02:58:09;;;;;;;9.48;2.50;;;;;;;11.02;68.53;100924.72;5147425;27;20047;-62
2022/11/25 03:00:37;;;;;;;9.15;3.08;;;;;;;11.03;68.58;100922.88;5144671;27;20274;-62
2022/11/25 03:03:05;;;;;;;10.63;2.20;;;;;;;11.02;68.46;100913.97;5141563;27;20039;-63
2022/11/25 03:05:33;;;;;;;9.85;2.28;;;;;;;10.97;68.90;100902.25;5134807;27;20046;-62
2022/11/25 03:08:01;;;;;;;7.07;2.40;;;;;;;11.00;68.69;100904.47;5146730;27;20105;-62
2022/11/25 03:10:29;;;;;;;5.15;2.40;;;;;;;11.01;68.49;100863.91;5146627;27;20107;-63
2022/11/25 03:12:58;;;;;;;11.07;2.53;;;;;;;11.00;68.74;100859.59;5134454;27;20051;-62
2022/11/25 03:15:26;;;;;;;10.98;2.15;;;;;;;10.96;68.69;100876.41;5143264;27;20047;-62
2022/11/25 03:17:54;;;;;;;10.15;1.95;;;;;;;10.97;68.76;100872.66;5145755;27;20054;-63
2022/11/25 03:20:21;;;;;;;9.57;1.90;;;;;;;10.96;68.72;100869.16;5138224;27;20054;-62
2022/11/25 03:22:49;;;;;;;6.55;1.85;;;;;;;10.96;68.89;100868.31;5145018;27;20525;-62
2022/11/25 03:25:18;;;;;;;4.57;1.80;;;;;;;10.96;68.72;100865.63;5146010;27;20051;-62
2022/11/25 03:27:46;;;;;;;8.45;1.90;;;;;;;10.95;68.90;100856.75;5147346;27;20050;-62
2022/11/25 03:30:17;;;;;;;9.52;1.80;;;;;;;10.95;68.70;100855.94;5144566;27;20054;-62
2022/11/25 03:32:44;;;;;;;5.10;1.50;;;;;;;10.95;68.77;100885.50;5140579;27;20039;-62
2022/11/25 03:35:13;;;;;;;8.20;2.00;;;;;;;10.93;69.01;100904.56;5138718;27;20082;-62
2022/11/25 03:37:41;;;;;;;9.70;2.22;;;;;;;10.94;68.95;100934.94;5146750;27;20129;-62
2022/11/25 03:40:11;;;;;;;5.88;2.03;;;;;;;10.94;68.87;100940.34;5145749;27;20600;-63
2022/11/25 03:42:39;;;;;;;7.20;1.90;;;;;;;10.92;68.90;100937.88;5135328;27;20059;-62
2022/11/25 03:45:09;;;;;;;5.53;1.95;;;;;;;10.93;69.00;100950.25;5133475;27;20727;-62
2022/11/25 03:47:39;;;;;;;2.75;1.10;;;;;;;10.94;68.87;100943.84;5146742;27;20066;-62
2022/11/25 03:50:08;;;;;;;6.18;1.65;;;;;;;10.94;68.76;100951.09;5142875;27;20043;-62
2022/11/25 03:52:36;;;;;;;8.50;2.47;;;;;;;10.90;68.97;100942.63;5144719;27;20054;-62
2022/11/25 03:55:05;;;;;;;3.83;1.42;;;;;;;10.93;69.01;100954.81;5141805;27;20043;-63
2022/11/25 03:57:33;;;;;;;7.03;1.65;;;;;;;10.93;68.91;100960.19;5146650;27;20057;-62
2022/11/25 04:00:00;;;;;;;5.30;2.25;;;;;;;10.92;69.09;100969.31;5138470;27;20129;-63
2022/11/25 04:02:28;;;;;;;6.63;1.80;;;;;;;10.92;68.87;100966.63;5144439;27;20053;-62
2022/11/25 04:04:57;;;;;;;6.22;1.67;;;;;;;10.90;68.98;100966.84;5133265;27;20481;-62
2022/11/25 04:07:25;;;;;;;4.95;1.55;;;;;;;10.90;69.12;100966.84;5146686;27;20051;-63
2022/11/25 04:09:53;;;;;;;8.30;1.40;;;;;;;10.89;69.00;100957.13;5144480;27;20054;-62
2022/11/25 04:15:07;;;;;;;3.72;1.52;;;;;;;10.90;69.12;100976.78;5143654;27;20051;-62
2022/11/25 04:17:34;;;;;;;5.05;1.15;;;;;;;10.89;69.12;100981.31;5146322;27;20047;-62
2022/11/25 04:20:04;;;;;;;3.58;1.40;;;;;;;10.88;69.08;100984.25;5137262;27;20320;-63
2022/11/25 04:22:32;;;;;;;6.47;1.67;;;;;;;10.89;69.17;100985.88;5146032;27;20051;-62
2022/11/25 04:25:00;;;;;;;4.57;1.38;;;;;;;10.89;69.04;100991.25;5134569;27;20043;-62
2022/11/25 04:27:27;;;;;;;3.25;1.85;;;;;;;10.88;68.70;100982.38;5146049;27;20129;-62
2022/11/25 04:29:55;;;;;;;5.78;1.83;;;;;;;10.87;69.05;100986.09;5145702;27;20047;-62
2022/11/25 04:32:23;;;;;;;4.65;1.70;;;;;;;10.86;69.02;100995.22;5129058;27;20047;-63
2022/11/25 04:34:51;;;;;;;3.53;1.20;;;;;;;10.86;69.07;101002.47;5135498;27;20041;-62
2022/11/25 04:37:20;;;;;;;2.17;1.20;;;;;;;10.87;69.04;101004.09;5145913;27;20110;-63
2022/11/25 04:39:48;;;;;;;3.20;1.40;;;;;;;10.83;69.13;100997.53;5138381;27;20261;-62
2022/11/25 04:42:35;;;;;;;7.85;1.73;;;;;;;10.87;68.87;101010.31;5145379;27;20047;-62
2022/11/25 04:45:05;;;;;;;6.28;1.60;;;;;;;10.87;69.02;101015.69;5136410;27;20134;-63
2022/11/25 04:47:50;;;;;;;6.85;1.48;;;;;;;10.86;69.00;101030.16;5144491;27;20067;-62
2022/11/25 04:50:19;;;;;;;6.15;1.88;;;;;;;10.86;69.15;101032.03;5140203;27;20056;-62
2022/11/25 04:52:48;;;;;;;5.70;1.38;;;;;;;10.85;68.82;101027.69;5128160;27;20055;-62
2022/11/25 04:55:16;;;;;;;6.07;1.80;;;;;;;10.84;68.94;101026.88;5132757;27;20146;-62
2022/11/25 04:57:44;;;;;;;4.00;1.40;;;;;;;10.84;68.88;101039.50;5144180;27;20058;-62
2022/11/25 05:00:12;;;;;;;2.97;1.23;;;;;;;10.84;69.09;101031.44;5145680;27;20043;-62
2022/11/25 05:02:40;;;;;;;3.92;1.20;;;;;;;10.83;69.01;101033.28;5145062;27;20073;-62
2022/11/25 05:05:09;;;;;;;3.90;1.45;;;;;;;10.83;69.05;101035.16;5141446;27;20044;-62
2022/11/25 05:07:37;;;;;;;5.03;1.30;;;;;;;10.83;68.84;101045.91;5145260;27;20106;-62
2022/11/25 05:10:08;;;;;;;3.90;1.15;;;;;;;10.82;68.99;101047.78;5143738;27;20047;-63
2022/11/25 05:12:36;;;;;;;2.78;1.20;;;;;;;10.82;68.78;101050.47;5143620;27;20403;-62
2022/11/25 05:15:06;;;;;;;3.72;1.10;;;;;;;10.81;68.88;101054.19;5145291;27;20051;-62
2022/11/25 05:17:35;;;;;;;3.42;1.25;;;;;;;10.81;68.89;101051.50;5137296;27;20036;-63
2022/11/25 05:20:03;;;;;;;4.97;1.30;;;;;;;10.80;68.81;101049.84;5140404;27;20055;-62
2022/11/25 05:22:32;;;;;;;4.78;1.08;;;;;;;10.79;68.98;101044.69;5142781;27;20043;-63
2022/11/25 05:25:00;;;;;;;4.07;2.03;;;;;;;10.78;69.13;101046.56;5143294;27;20046;-62
2022/11/25 05:27:29;;;;;;;3.63;1.20;;;;;;;10.78;68.96;101049.25;5138014;27;20086;-63
2022/11/25 05:29:57;;;;;;;2.63;0.90;;;;;;;10.76;68.95;101052.16;5137354;27;20059;-62
2022/11/25 05:32:25;;;;;;;4.88;1.70;;;;;;;10.76;68.59;101054.03;5144978;27;20134;-63
2022/11/25 05:34:52;;;;;;;3.80;1.25;;;;;;;10.75;68.91;101049.69;5141530;27;20043;-63
2022/11/25 05:37:20;;;;;;;4.18;1.00;;;;;;;10.75;68.88;101055.88;5142006;27;20361;-62
2022/11/25 05:39:51;;;;;;;3.08;1.23;;;;;;;10.71;68.85;101043.94;5144078;27;20058;-62
2022/11/25 05:42:19;;;;;;;2.35;1.10;;;;;;;10.71;69.00;101052.00;5141941;27;20058;-63
2022/11/25 05:44:48;;;;;;;3.88;1.08;;;;;;;10.71;68.86;101054.69;5142465;27;20334;-63
2022/11/25 05:47:16;;;;;;;3.63;1.27;;;;;;;10.71;68.84;101062.75;5143559;27;20551;-63
2022/11/25 05:49:43;;;;;;;2.88;0.80;;;;;;;10.71;68.87;101064.59;5127131;27;20048;-63
2022/11/25 05:52:11;;;;;;;4.35;1.48;;;;;;;10.69;68.93;101062.13;5133409;27;20047;-62
2022/11/25 05:54:39;;;;;;;2.80;0.90;;;;;;;10.69;68.77;101074.75;5141655;27;20066;-62
2022/11/25 05:57:06;;;;;;;3.17;1.30;;;;;;;10.69;68.74;101075.56;5141480;27;20047;-63
2022/11/25 05:59:34;;;;;;;3.50;1.23;;;;;;;10.68;68.62;101073.09;5144109;27;20384;-62
2022/11/25 06:02:03;;;;;;;3.78;1.20;;;;;;;10.68;68.78;101075.78;5143510;27;20046;-62
2022/11/25 06:04:31;;;;;;;4.07;1.50;;;;;;;10.63;68.81;101076.44;5139405;27;20051;-62
2022/11/25 06:06:58;;;;;;;2.50;1.13;;;;;;;10.66;68.73;101084.06;5143215;27;20380;-63
2022/11/25 06:09:26;;;;;;;4.65;0.98;;;;;;;10.65;68.74;101090.50;5143505;27;20043;-62
2022/11/25 06:11:54;;;;;;;5.00;1.63;;;;;;;10.63;68.79;101087.19;5135573;27;20055;-64
2022/11/25 06:14:21;;;;;;;3.55;1.10;;;;;;;10.64;68.64;101086.16;5138753;27;20110;-63
2022/11/25 06:16:49;;;;;;;2.72;1.30;;;;;;;10.65;68.69;101085.13;5139594;27;20130;-62
2022/11/25 06:19:18;;;;;;;3.75;1.40;;;;;;;10.63;68.66;101079.13;5130155;27;20058;-62
2022/11/25 06:21:46;;;;;;;3.03;1.25;;;;;;;10.63;68.60;101089.88;5141830;27;20046;-63
2022/11/25 06:24:14;;;;;;;2.20;1.20;;;;;;;10.61;68.74;101091.97;5128245;27;20146;-64
2022/11/25 06:26:42;;;;;;;3.60;1.30;;;;;;;10.59;68.75;101110.16;5134886;27;20137;-61
2022/11/25 06:29:09;;;;;;;5.22;1.50;;;;;;;10.56;68.73;101107.09;5142832;28;20054;-64
2022/11/25 06:31:37;;;;;;;7.93;1.63;;;;;;;10.58;68.60;101107.69;5139395;28;20065;-64
2022/11/25 06:34:08;;;;;;;4.20;1.42;;;;;;;10.56;68.72;101115.97;5143381;28;20119;-64
2022/11/25 06:36:37;;;;;;;4.90;1.45;;;;;;;10.56;68.68;101120.53;5133204;28;20044;-64
2022/11/25 06:39:04;;;;;;;4.43;1.02;;;;;;;10.56;68.75;101125.91;5139470;28;20130;-62
2022/11/25 06:41:32;;;;;;;1.95;1.08;;;;;;;10.55;68.77;101126.94;5131807;28;20089;-63
2022/11/25 06:44:00;;;;;;;3.08;1.30;;;;;;;10.54;68.53;101127.97;5143039;28;20058;-69
2022/11/25 06:46:28;;;;;;;2.60;1.30;;;;;;;10.55;68.42;101135.81;4781400;27;9999874;-62
2022/11/25 06:48:55;;;;;;;2.97;1.20;;;;;;;10.54;68.61;101138.72;5137662;28;20065;-63
2022/11/25 06:51:23;;;;;;;2.63;1.02;;;;;;;10.53;68.71;101139.75;5137879;28;20053;-62
2022/11/25 06:53:53;;;;;;;4.60;1.30;;;;;;;10.52;68.37;101130.06;5138861;28;20263;-62
2022/11/25 06:56:22;;;;;;;9.13;1.83;;;;;;;10.53;68.55;101131.69;5134050;28;20039;-63
2022/11/25 06:58:51;;;;;;;3.83;1.38;;;;;;;10.53;68.60;101142.44;5139990;28;20651;-63
2022/11/25 07:01:20;;;;;;;4.35;1.38;;;;;;;10.53;68.47;101140.59;5140002;28;20039;-63
2022/11/25 07:03:49;;;;;;;4.30;1.58;;;;;;;10.53;68.49;101142.44;5138534;28;20051;-64
2022/11/25 07:06:19;;;;;;;2.85;1.20;;;;;;;10.52;68.48;101138.94;5125181;28;20124;-63
2022/11/25 07:08:47;;;;;;;4.03;1.40;;;;;;;10.52;68.44;101140.81;5137755;28;20043;-64
2022/11/25 07:11:19;;;;;;;3.25;1.40;;;;;;;10.51;68.59;101141.84;5139511;28;20059;-64
2022/11/25 07:13:47;;;;;;;6.10;1.50;;;;;;;10.51;68.83;101152.59;5130483;27;20114;-63
2022/11/25 07:16:15;;;;;;;8.10;1.92;;;;;;;10.50;68.89;101161.69;5135365;28;20049;-62
2022/11/25 07:18:44;;;;;;;4.90;1.75;;;;;;;10.60;68.43;101156.69;5130521;28;20043;-62
2022/11/25 07:21:14;;;;;;;8.52;1.77;;;;;;;10.72;68.14;101161.16;5120585;28;20494;-63
2022/11/25 07:23:43;;;;;;;3.63;1.55;;;;;;;10.90;67.26;101170.38;5130469;28;20047;-63
2022/11/25 07:26:13;;;;;;;5.10;2.03;;;;;;;11.04;66.83;101178.16;5138137;27;20043;-64
2022/11/25 07:28:43;;;;;;;7.38;1.80;;;;;;;11.14;66.83;101176.84;5143604;27;20039;-63
2022/11/25 07:31:15;;;;;;;6.10;1.55;;;;;;;11.28;66.59;101181.09;5144086;27;20070;-64
2022/11/25 07:33:56;;;;;;;4.90;1.67;;;;;;;11.40;65.92;101187.41;5133066;27;20043;-64
2022/11/25 07:36:25;;;;;;;12.20;2.83;;;;;;;11.50;65.62;101189.63;5131192;27;20043;-63
2022/11/25 07:38:54;;;;;;;10.30;2.30;;;;;;;11.53;65.19;101176.53;5144943;27;20081;-64
2022/11/25 07:41:24;;;;;;;6.95;1.95;;;;;;;11.74;64.68;101200.38;5135174;27;20059;-64
2022/11/25 07:43:56;;;;;;;6.00;2.00;;;;;;;11.86;63.89;101205.91;5142445;27;20051;-64
2022/11/25 07:46:26;;;;;;;4.63;2.35;;;;;;;11.92;63.90;101215.78;5137250;27;20039;-64
2022/11/25 07:48:55;;;;;;;9.05;1.90;;;;;;;11.88;63.86;101217.28;5145558;27;20095;-63
2022/11/25 07:51:25;;;;;;;5.57;1.92;;;;;;;11.76;64.42;101221.69;5140139;27;20062;-63
2022/11/25 07:53:54;;;;;;;5.38;1.63;;;;;;;11.61;64.92;101224.72;5146659;27;20054;-63
2022/11/25 07:56:22;;;;;;;4.68;1.70;;;;;;;11.50;65.11;101238.06;5133776;27;20514;-62
2022/11/25 07:58:50;;;;;;;4.88;2.05;;;;;;;11.40;65.37;101247.44;5145117;27;20556;-62
2022/11/25 08:01:19;;;;;;;5.68;1.80;;;;;;;11.28;65.86;101246.50;5146308;27;20111;-62
2022/11/25 08:03:49;;;;;;;4.93;2.10;;;;;;;11.20;66.25;101259.38;5142554;27;20043;-62
2022/11/25 08:06:19;;;;;;;6.78;2.15;;;;;;;11.12;66.37;101254.25;5144907;27;20043;-62
2022/11/25 08:08:47;;;;;;;6.45;1.83;;;;;;;11.08;66.66;101262.75;5142095;27;20047;-62
2022/11/25 08:11:17;;;;;;;5.30;1.80;;;;;;;11.01;66.83;101266.50;5140152;27;20051;-62
2022/11/25 08:13:45;;;;;;;5.95;1.80;;;;;;;10.98;66.84;101265.06;5143792;27;20070;-63
2022/11/25 08:16:16;;;;;;;9.48;2.10;;;;;;;10.93;66.96;101267.56;5144733;27;20047;-63
2022/11/25 08:18:46;;;;;;;4.18;1.65;;;;;;;10.89;67.10;101276.28;5132524;27;20047;-62
2022/11/25 08:21:15;;;;;;;4.43;1.83;;;;;;;10.85;67.05;101280.44;5143430;27;20237;-62
2022/11/25 08:23:46;;;;;;;8.85;2.35;;;;;;;10.83;67.23;101282.50;5138558;27;20122;-62
2022/11/25 08:26:16;;;;;;;7.25;2.47;;;;;;;10.79;67.42;101284.81;5140920;27;20109;-62
2022/11/25 08:28:45;;;;;;;5.60;1.58;;;;;;;10.77;67.48;101284.19;5142268;27;20058;-62
2022/11/25 08:31:15;;;;;;;4.20;1.75;;;;;;;10.75;67.66;101288.94;5144515;27;20074;-62
2022/11/25 08:33:46;;;;;;;5.90;1.77;;;;;;;10.74;67.65;101292.69;5139074;27;20110;-63
2022/11/25 08:36:14;;;;;;;6.95;2.08;;;;;;;10.71;67.60;101293.94;5144277;27;20043;-62
2022/11/25 08:38:43;;;;;;;5.30;1.83;;;;;;;10.70;67.86;101296.81;5132799;27;20484;-62
2022/11/25 08:41:12;;;;;;;6.78;2.10;;;;;;;10.68;67.88;101291.66;5145087;27;20062;-62
2022/11/25 08:43:40;;;;;;;6.50;2.20;;;;;;;10.68;67.79;101298.91;5144060;27;20082;-61
2022/11/25 08:46:10;;;;;;;6.70;1.80;;;;;;;10.66;67.85;101296.41;5141698;27;20129;-62
2022/11/25 08:48:38;;;;;;;10.55;2.28;;;;;;;10.65;68.09;101296.63;5143564;27;20053;-61
2022/11/25 08:51:10;;;;;;;5.13;1.80;;;;;;;10.64;67.88;101297.66;5134632;27;20069;-61
2022/11/25 08:53:40;;;;;;;5.53;1.83;;;;;;;10.61;68.27;101301.59;5136774;27;20071;-62
2022/11/25 08:56:09;;;;;;;6.30;2.70;;;;;;;10.61;68.17;101292.72;5144551;27;20043;-62
2022/11/25 08:58:37;;;;;;;5.95;1.95;;;;;;;10.60;68.16;101302.63;5142944;27;20567;-62
2022/11/25 09:01:06;;;;;;;5.47;1.88;;;;;;;10.60;68.10;101304.50;5134297;27;20086;-62
2022/11/25 09:03:36;;;;;;;8.23;2.85;;;;;;;10.60;68.09;101309.88;5144504;27;20049;-62
2022/11/25 09:06:05;;;;;;;5.28;1.73;;;;;;;10.61;68.21;101314.22;5142638;27;20355;-63
2022/11/25 09:08:34;;;;;;;6.43;1.77;;;;;;;10.61;68.21;101315.03;5138698;27;20665;-63
2022/11/25 09:11:02;;;;;;;8.88;1.88;;;;;;;10.68;67.96;101318.53;5144583;27;20043;-63
2022/11/25 09:13:30;;;;;;;6.28;2.03;;;;;;;10.81;67.82;101322.22;5142570;27;20047;-63
2022/11/25 09:15:59;;;;;;;4.40;1.50;;;;;;;10.94;67.34;101311.44;5141385;27;20111;-63
2022/11/25 09:18:29;;;;;;;8.23;1.95;;;;;;;11.09;66.92;101314.69;5126626;27;20065;-63
2022/11/25 09:20:57;;;;;;;7.47;1.83;;;;;;;11.24;66.28;101323.28;5141985;27;20138;-66
2022/11/25 09:23:25;;;;;;;6.43;1.77;;;;;;;11.44;65.71;101328.56;5143206;27;20055;-65
2022/11/25 09:25:56;;;;;;;5.80;1.88;;;;;;;11.62;65.23;101331.38;5138723;27;20070;-63
2022/11/25 09:28:25;;;;;;;6.32;1.83;;;;;;;11.75;64.65;101338.53;5143364;27;20059;-63
2022/11/25 09:30:53;;;;;;;4.18;1.73;;;;;;;11.96;64.37;101345.47;5142695;27;20114;-64
2022/11/25 09:33:21;;;;;;;5.57;1.80;;;;;;;12.01;63.75;101342.94;5138656;27;20050;-64
2022/11/25 09:35:49;;;;;;;5.22;1.80;;;;;;;11.97;64.09;101342.56;5143873;27;20069;-63
2022/11/25 09:38:17;;;;;;;6.55;2.03;;;;;;;11.86;64.49;101348.63;5141448;27;20047;-66
2022/11/25 09:40:54;;;;;;;5.55;1.88;;;;;;;11.68;65.16;101356.59;5143243;27;20053;-64
2022/11/25 09:46:41;;;;;;;6.28;2.28;;;;;;;11.42;66.77;101368.34;5136128;27;20043;-64
2022/11/25 09:49:23;;;;;;;7.22;2.80;;;;;;;11.53;66.24;101366.84;5142561;27;20071;-64
2022/11/25 09:52:01;;;;;;;7.25;2.13;;;;;;;11.64;66.16;101369.66;5138763;27;20047;-64
2022/11/25 09:54:34;;;;;;;6.55;2.80;;;;;;;11.84;65.48;101374.13;5126134;27;20039;-64
2022/11/25 09:57:15;;;;;;;7.55;2.30;;;;;;;11.97;64.97;101377.56;5144368;27;20043;-64
2022/11/25 09:59:52;;;;;;;5.85;2.10;;;;;;;12.16;64.39;101380.31;5142310;27;20054;-64
2022/11/25 10:02:26;;;;;;;9.18;3.05;;;;;;;12.33;63.45;101384.09;5143418;27;20088;-64
2022/11/25 10:05:02;;;;;;;9.55;2.38;;;;;;;12.48;63.34;101381.91;5142213;27;20055;-64
2022/11/25 10:07:36;;;;;;;8.80;2.03;;;;;;;12.51;63.11;101381.47;5144039;27;20050;-65
2022/11/25 10:10:10;;;;;;;5.50;2.28;;;;;;;12.46;63.01;101384.00;5140080;27;20051;-62
2022/11/25 10:12:40;;;;;;;6.35;2.92;;;;;;;12.20;64.69;101389.59;5143799;27;20051;-64
2022/11/25 10:15:17;;;;;;;7.72;3.15;;;;;;;12.04;64.88;101394.50;5142893;27;20511;-66
2022/11/25 10:17:48;;;;;;;8.07;2.17;;;;;;;11.89;65.50;101406.63;5143097;27;20039;-64
2022/11/25 10:20:22;;;;;;;9.30;2.40;;;;;;;11.78;65.86;101410.84;5136381;27;20074;-63
2022/11/25 10:22:53;;;;;;;9.43;2.88;;;;;;;11.68;66.10;101411.28;5135687;27;20047;-63
2022/11/25 10:25:23;;;;;;;10.02;2.65;;;;;;;11.61;66.73;101421.25;5142566;27;20051;-64
2022/11/25 10:27:57;;;;;;;7.20;2.38;;;;;;;11.57;66.56;101427.28;5134815;27;20075;-63
2022/11/25 10:30:27;;;;;;;18.10;2.85;;;;;;;11.51;66.92;101426.25;5142829;28;20115;-64
2022/11/25 10:33:06;;;;;;;7.10;2.15;;;;;;;11.48;66.95;101425.88;5135585;28;20086;-63
2022/11/25 10:35:38;;;;;;;5.47;2.05;;;;;;;11.46;67.03;101433.31;5142900;28;20492;-63
2022/11/25 10:38:11;;;;;;;12.20;2.13;;;;;;;11.44;67.60;101438.09;5138762;27;20166;-64
2022/11/25 10:40:48;;;;;;;7.78;2.28;;;;;;;11.41;67.42;101439.34;5137076;28;20066;-63
2022/11/25 10:43:16;;;;;;;7.40;2.08;;;;;;;11.38;67.44;101442.47;5133761;28;20094;-63
2022/11/25 10:45:51;;;;;;;8.52;2.33;;;;;;;11.36;67.57;101442.69;5143679;27;20077;-63
2022/11/25 10:48:41;;;;;;;8.68;2.30;;;;;;;11.35;67.53;101450.97;5143683;27;20047;-63
2022/11/25 10:51:35;;;;;;;9.57;2.33;;;;;;;11.30;67.65;101443.53;5137083;28;20498;-63
2022/11/25 10:54:16;;;;;;;6.45;2.67;;;;;;;11.30;67.85;101448.91;5140290;28;20043;-64
2022/11/25 10:56:51;;;;;;;9.95;2.53;;;;;;;11.31;67.93;101455.13;5133856;28;20078;-64
2022/11/25 10:59:23;;;;;;;7.97;2.30;;;;;;;11.30;68.07;101456.16;5139992;28;20044;-64
2022/11/25 11:02:05;;;;;;;7.53;2.15;;;;;;;11.29;67.95;101467.97;5140585;27;20058;-64
2022/11/25 11:04:34;;;;;;;9.25;2.90;;;;;;;11.27;68.06;101468.16;4788170;27;9999783;-63
2022/11/25 11:07:08;;;;;;;7.88;2.03;;;;;;;11.26;68.02;101466.50;5132311;27;20043;-63
2022/11/25 11:09:38;;;;;;;9.43;2.55;;;;;;;11.24;67.97;101467.75;5143297;27;20119;-63
2022/11/25 11:12:17;;;;;;;8.55;2.30;;;;;;;11.23;67.97;101466.09;5144692;27;20112;-63
2022/11/25 11:14:45;;;;;;;9.43;3.13;;;;;;;11.23;67.96;101469.63;5142409;27;20039;-63
2022/11/25 11:17:30;;;;;;;8.68;2.53;;;;;;;11.28;68.21;101471.69;5142985;27;20043;-64
2022/11/25 11:20:15;;;;;;;12.02;3.00;;;;;;;11.27;67.88;101481.63;5137263;27;20076;-63
2022/11/25 11:22:51;;;;;;;9.63;2.22;;;;;;;11.27;68.01;101492.38;5143866;27;20050;-63
2022/11/25 11:25:40;;;;;;;13.35;2.92;;;;;;;11.30;68.19;101491.13;5136425;27;20439;-63
2022/11/25 11:28:28;;;;;;;12.30;2.67;;;;;;;11.30;68.28;101500.03;5124962;27;20495;-64
2022/11/25 11:30:59;;;;;;;6.85;2.75;;;;;;;11.31;68.10;101495.47;5142537;27;20134;-63
2022/11/25 11:33:41;;;;;;;11.30;2.20;;;;;;;11.32;68.15;101502.53;5143583;27;20586;-62
2022/11/25 11:36:28;;;;;;;8.63;2.53;;;;;;;11.30;68.06;101501.91;5141607;27;20061;-61
2022/11/25 11:39:25;;;;;;;9.38;2.17;;;;;;;11.33;68.07;101502.31;5138725;27;20599;-62
2022/11/25 11:42:01;;;;;;;9.95;2.97;;;;;;;11.36;68.13;101514.50;5141879;27;20055;-63
2022/11/25 11:44:40;;;;;;;10.80;2.45;;;;;;;11.36;67.31;101526.09;5129058;27;20138;-67
2022/11/25 11:47:19;;;;;;;9.30;2.40;;;;;;;11.35;67.74;101523.63;5141340;27;20043;-62